createdAt,value
2018-01-15T08:02:46.220Z,1011.85
2018-01-15T08:03:55.044Z,1011.79
2018-01-15T08:05:03.873Z,1011.74
2018-01-15T08:06:12.704Z,1011.73
2018-01-15T08:07:21.803Z,1011.65
2018-01-15T08:08:30.629Z,1011.65
2018-01-15T08:09:39.455Z,1011.68
2018-01-15T08:10:48.555Z,1011.59
2018-01-15T08:11:57.480Z,1011.6
2018-01-15T08:13:06.304Z,1011.59
2018-01-15T08:14:15.136Z,1011.46
2018-01-15T08:15:23.955Z,1011.5
2018-01-15T08:16:32.781Z,1011.51
2018-01-15T08:17:41.607Z,1011.45
2018-01-15T08:18:50.432Z,1011.42
2018-01-15T08:19:59.255Z,1011.46
2018-01-15T08:21:08.080Z,1011.42
2018-01-15T08:22:16.908Z,1011.43
2018-01-15T08:23:25.734Z,1011.38
2018-01-15T08:24:34.557Z,1011.38
2018-01-15T08:25:43.384Z,1011.37
2018-01-15T08:26:52.207Z,1011.2
2018-01-15T08:28:01.034Z,1011.27
2018-01-15T08:29:10.009Z,1011.25
2018-01-15T08:30:18.835Z,1011.26
2018-01-15T08:31:27.664Z,1011.19
2018-01-15T08:32:36.501Z,1011.12
2018-01-15T08:33:45.312Z,1011.14
2018-01-15T08:34:54.186Z,1011.15
2018-01-15T08:36:03.012Z,1011.09
2018-01-15T08:37:11.837Z,1011.13
2018-01-15T08:38:20.661Z,1011.16
2018-01-15T08:39:29.488Z,1011.12
2018-01-15T08:40:38.310Z,1011.1
2018-01-15T08:41:47.134Z,1011.08
2018-01-15T08:42:56.234Z,1011.07
2018-01-15T08:44:05.061Z,1011.04
2018-01-15T08:45:13.884Z,1010.98
2018-01-15T08:46:22.959Z,1010.94
2018-01-15T08:47:31.784Z,1010.91
2018-01-15T08:48:40.613Z,1010.9
2018-01-15T08:49:49.435Z,1010.89
2018-01-15T08:50:58.258Z,1010.91
2018-01-15T08:52:07.283Z,1010.85
2018-01-15T08:53:16.105Z,1010.88
2018-01-15T08:54:24.931Z,1010.89
2018-01-15T08:55:33.754Z,1010.88
2018-01-15T08:56:42.584Z,1010.81
2018-01-15T08:57:51.405Z,1010.78
2018-01-15T08:59:00.525Z,1010.79
2018-01-15T09:00:09.351Z,1010.83
2018-01-15T09:01:18.175Z,1010.83
2018-01-15T09:02:27.001Z,1010.76
2018-01-15T09:03:35.978Z,1010.72
2018-01-15T09:04:44.803Z,1010.71
2018-01-15T09:05:53.630Z,1010.69
2018-01-15T09:07:02.457Z,1010.63
2018-01-15T09:08:11.283Z,1010.63
2018-01-15T09:09:20.310Z,1010.56
2018-01-15T09:10:29.133Z,1010.6
2018-01-15T09:11:37.957Z,1010.53
2018-01-15T09:12:46.783Z,1010.41
2018-01-15T09:13:55.609Z,1010.39
2018-01-15T09:15:04.858Z,1010.43
2018-01-15T09:16:13.735Z,1010.35
2018-01-15T09:17:22.512Z,1010.35
2018-01-15T09:18:31.337Z,1010.32
2018-01-15T09:19:40.163Z,1010.28
2018-01-15T09:20:49.096Z,1010.29
2018-01-15T09:21:57.913Z,1010.19
2018-01-15T09:23:06.740Z,1010.3
2018-01-15T09:24:15.567Z,1010.21
2018-01-15T09:25:24.392Z,1010.18
2018-01-15T09:26:33.318Z,1010.19
2018-01-15T09:27:42.145Z,1010.16
2018-01-15T09:28:50.971Z,1010.16
2018-01-15T09:29:59.799Z,1010.18
2018-01-15T09:31:08.625Z,1010.15
2018-01-15T09:32:17.503Z,1010.08
2018-01-15T09:33:26.327Z,1010.07
2018-01-15T09:34:35.155Z,1010
2018-01-15T09:35:44.250Z,1009.98
2018-01-15T09:36:53.077Z,1009.93
2018-01-15T09:38:02.574Z,1009.96
2018-01-15T09:39:11.401Z,1009.95
2018-01-15T09:40:20.226Z,1009.9
2018-01-15T09:41:29.051Z,1009.86
2018-01-15T09:42:37.876Z,1009.83
2018-01-15T09:43:46.752Z,1009.86
2018-01-15T09:44:55.581Z,1009.76
2018-01-15T09:46:04.406Z,1009.75
2018-01-15T09:47:13.231Z,1009.7
2018-01-15T09:48:22.057Z,1009.73
2018-01-15T09:49:30.931Z,1009.65
2018-01-15T09:50:39.756Z,1009.66
2018-01-15T09:51:48.582Z,1009.68
2018-01-15T09:52:57.408Z,1009.61
2018-01-15T09:54:06.239Z,1009.57
2018-01-15T09:55:15.310Z,1009.56
2018-01-15T09:56:24.135Z,1009.58
2018-01-15T09:57:32.964Z,1009.48
2018-01-15T09:58:41.788Z,1009.44
2018-01-15T09:59:50.614Z,1009.42
2018-01-15T10:00:59.539Z,1009.43
2018-01-15T10:02:08.366Z,1009.35
2018-01-15T10:03:17.193Z,1009.44
2018-01-15T10:04:26.291Z,1009.34
2018-01-15T10:05:35.118Z,1009.39
2018-01-15T10:06:44.265Z,1009.35
2018-01-15T10:07:53.093Z,1009.32
2018-01-15T10:09:02.223Z,1009.33
2018-01-15T10:10:11.021Z,1009.35
2018-01-15T10:11:19.847Z,1009.36
2018-01-15T10:12:28.973Z,1009.34
2018-01-15T10:13:38.076Z,1009.36
2018-01-15T10:14:47.174Z,1009.38
2018-01-15T10:15:56.001Z,1009.37
2018-01-15T10:17:04.830Z,1009.37
2018-01-15T10:18:13.756Z,1009.29
2018-01-15T10:19:22.583Z,1009.26
2018-01-15T10:20:31.408Z,1009.22
2018-01-15T10:21:40.234Z,1009.22
2018-01-15T10:22:49.344Z,1009.23
2018-01-15T10:23:58.170Z,1009.12
2018-01-15T10:25:06.997Z,1009.04
2018-01-15T10:26:15.824Z,1008.97
2018-01-15T10:27:24.650Z,1009.04
2018-01-15T10:28:33.477Z,1008.97
2018-01-15T10:29:42.451Z,1008.79
2018-01-15T10:30:51.279Z,1008.73
2018-01-15T10:32:00.108Z,1008.74
2018-01-15T10:33:08.934Z,1008.75
2018-01-15T10:34:17.761Z,1008.72
2018-01-15T10:35:26.592Z,1008.64
2018-01-15T10:36:35.414Z,1008.63
2018-01-15T10:37:44.240Z,1008.67
2018-01-15T10:38:53.065Z,1008.64
2018-01-15T10:40:01.894Z,1008.58
2018-01-15T10:41:10.873Z,1008.57
2018-01-15T10:42:19.698Z,1008.53
2018-01-15T10:43:28.524Z,1008.52
2018-01-15T10:44:37.352Z,1008.56
2018-01-15T10:45:46.181Z,1008.47
2018-01-15T10:46:55.057Z,1008.43
2018-01-15T10:48:03.882Z,1008.43
2018-01-15T10:49:12.765Z,1008.46
2018-01-15T10:50:21.536Z,1008.46
2018-01-15T10:51:30.641Z,1008.44
2018-01-15T10:52:39.749Z,1008.41
2018-01-15T10:53:48.577Z,1008.39
2018-01-15T10:54:57.678Z,1008.4
2018-01-15T10:56:06.505Z,1008.34
2018-01-15T10:57:15.331Z,1008.36
2018-01-15T10:58:24.258Z,1008.32
2018-01-15T10:59:33.088Z,1008.29
2018-01-15T11:00:41.907Z,1008.23
2018-01-15T11:01:50.734Z,1008.26
2018-01-15T11:02:59.561Z,1008.23
2018-01-15T11:04:08.539Z,1008.23
2018-01-15T11:05:17.366Z,1008.21
2018-01-15T11:06:26.193Z,1008.16
2018-01-15T11:07:35.021Z,1008.09
2018-01-15T11:08:43.900Z,1008.06
2018-01-15T11:09:52.725Z,1007.93
2018-01-15T11:11:01.555Z,1007.9
2018-01-15T11:12:10.385Z,1007.9
2018-01-15T11:13:19.212Z,1007.82
2018-01-15T11:14:28.040Z,1007.75
2018-01-15T11:15:37.268Z,1007.71
2018-01-15T11:16:46.097Z,1007.73
2018-01-15T11:17:54.924Z,1007.68
2018-01-15T11:19:03.751Z,1007.67
2018-01-15T11:20:12.577Z,1007.56
2018-01-15T11:21:21.505Z,1007.48
2018-01-15T11:22:30.334Z,1007.45
2018-01-15T11:23:39.236Z,1007.42
2018-01-15T11:24:47.990Z,1007.38
2018-01-15T11:25:56.819Z,1007.38
2018-01-15T11:27:05.697Z,1007.33
2018-01-15T11:28:14.525Z,1007.31
2018-01-15T11:29:23.353Z,1007.27
2018-01-15T11:30:32.180Z,1007.3
2018-01-15T11:31:41.009Z,1007.13
2018-01-15T11:32:49.986Z,1007.13
2018-01-15T11:33:59.089Z,1007.12
2018-01-15T11:35:08.190Z,1007.03
2018-01-15T11:36:17.017Z,1006.99
2018-01-15T11:37:25.845Z,1006.89
2018-01-15T11:38:34.825Z,1006.98
2018-01-15T11:39:43.650Z,1006.88
2018-01-15T11:40:52.797Z,1006.86
2018-01-15T11:42:01.625Z,1006.87
2018-01-15T11:43:10.453Z,1006.82
2018-01-15T11:44:19.381Z,1006.76
2018-01-15T11:45:28.209Z,1006.72
2018-01-15T11:46:37.038Z,1006.66
2018-01-15T11:47:45.867Z,1006.65
2018-01-15T11:48:54.697Z,1006.6
2018-01-15T11:50:03.525Z,1006.56
2018-01-15T11:51:12.627Z,1006.52
2018-01-15T11:52:21.729Z,1006.41
2018-01-15T11:53:30.561Z,1006.42
2018-01-15T11:54:39.661Z,1006.34
2018-01-15T11:55:48.538Z,1006.33
2018-01-15T11:56:57.364Z,1006.32
2018-01-15T11:58:06.193Z,1006.25
2018-01-15T11:59:15.025Z,1006.24
2018-01-15T12:00:23.927Z,1006.22
2018-01-15T12:01:33.008Z,1006.2
2018-01-15T12:02:41.834Z,1006.2
2018-01-15T12:03:50.662Z,1006.17
2018-01-15T12:04:59.498Z,1006.1
2018-01-15T12:06:08.326Z,1006.03
2018-01-15T12:07:17.201Z,1006.02
2018-01-15T12:08:26.065Z,1005.98
2018-01-15T12:09:35.222Z,1005.96
2018-01-15T12:10:44.066Z,1005.92
2018-01-15T12:11:52.915Z,1005.94
2018-01-15T12:13:01.960Z,1005.9
2018-01-15T12:14:10.827Z,1005.82
2018-01-15T12:15:19.689Z,1005.75
2018-01-15T12:16:28.551Z,1005.79
2018-01-15T12:17:37.456Z,1005.81
2018-01-15T12:18:46.584Z,1005.74
2018-01-15T12:19:55.421Z,1005.67
2018-01-15T12:21:04.553Z,1005.63
2018-01-15T12:22:13.380Z,1005.57
2018-01-15T12:23:22.225Z,1005.52
2018-01-15T12:24:31.310Z,1005.54
2018-01-15T12:25:40.442Z,1005.44
2018-01-15T12:26:49.319Z,1005.43
2018-01-15T12:27:58.167Z,1005.4
2018-01-15T12:29:07.046Z,1005.35
2018-01-15T12:30:16.026Z,1005.28
2018-01-15T12:31:24.861Z,1005.26
2018-01-15T12:32:33.757Z,1005.19
2018-01-15T12:33:42.597Z,1005.2
2018-01-15T12:34:51.425Z,1005.22
2018-01-15T12:36:00.954Z,1005.13
2018-01-15T12:37:10.182Z,1005.02
2018-01-15T12:38:19.011Z,1004.98
2018-01-15T12:39:27.841Z,1005
2018-01-15T12:40:36.668Z,1004.96
2018-01-15T12:41:45.596Z,1004.9
2018-01-15T12:42:54.455Z,1004.91
2018-01-15T12:44:03.286Z,1004.87
2018-01-15T12:45:12.111Z,1004.85
2018-01-15T12:46:20.938Z,1004.77
2018-01-15T12:47:30.283Z,1004.77
2018-01-15T12:48:39.166Z,1004.79
2018-01-15T12:49:48.016Z,1004.69
2018-01-15T12:50:56.895Z,1004.68
2018-01-15T12:52:05.734Z,1004.65
2018-01-15T12:53:14.665Z,1004.58
2018-01-15T12:54:23.526Z,1004.58
2018-01-15T12:55:32.381Z,1004.54
2018-01-15T12:56:41.209Z,1004.57
2018-01-15T12:57:50.037Z,1004.49
2018-01-15T12:58:59.244Z,1004.41
2018-01-15T13:00:08.077Z,1004.41
2018-01-15T13:01:16.906Z,1004.35
2018-01-15T13:02:25.823Z,1004.3
2018-01-15T13:03:34.712Z,1004.3
2018-01-15T13:04:43.713Z,1004.26
2018-01-15T13:05:52.542Z,1004.22
2018-01-15T13:07:01.373Z,1004.15
2018-01-15T13:08:10.201Z,1004.07
2018-01-15T13:09:19.029Z,1004.06
2018-01-15T13:10:28.008Z,1004.02
2018-01-15T13:11:36.836Z,1004.01
2018-01-15T13:12:45.665Z,1003.93
2018-01-15T13:13:54.495Z,1003.9
2018-01-15T13:15:03.327Z,1003.89
2018-01-15T13:16:12.455Z,1003.86
2018-01-15T13:17:21.290Z,1003.83
2018-01-15T13:18:30.113Z,1003.75
2018-01-15T13:19:38.941Z,1003.7
2018-01-15T13:20:48.044Z,1003.66
2018-01-15T13:21:56.873Z,1003.54
2018-01-15T13:23:05.978Z,1003.51
2018-01-15T13:24:14.807Z,1003.5
2018-01-15T13:25:23.632Z,1003.45
2018-01-15T13:26:32.463Z,1003.52
2018-01-15T13:27:41.344Z,1003.49
2018-01-15T13:28:50.172Z,1003.45
2018-01-15T13:29:58.998Z,1003.41
2018-01-15T13:31:07.826Z,1003.43
2018-01-15T13:32:16.650Z,1003.32
2018-01-15T13:33:25.479Z,1003.27
2018-01-15T13:34:34.308Z,1003.23
2018-01-15T13:35:43.135Z,1003.16
2018-01-15T13:36:51.962Z,1003.15
2018-01-15T13:38:00.796Z,1003.11
2018-01-15T13:39:09.674Z,1003.03
2018-01-15T13:40:18.502Z,1003.05
2018-01-15T13:41:27.331Z,1003.06
2018-01-15T13:42:36.160Z,1002.99
2018-01-15T13:43:44.987Z,1002.97
2018-01-15T13:44:53.924Z,1002.98
2018-01-15T13:46:02.752Z,1002.94
2018-01-15T13:47:11.587Z,1002.88
2018-01-15T13:48:20.416Z,1002.83
2018-01-15T13:49:29.254Z,1002.79
2018-01-15T13:50:38.133Z,1002.77
2018-01-15T13:51:47.239Z,1002.74
2018-01-15T13:52:56.090Z,1002.73
2018-01-15T13:54:04.918Z,1002.65
2018-01-15T13:55:13.763Z,1002.64
2018-01-15T13:56:23.582Z,1002.63
2018-01-15T13:57:32.417Z,1002.59
2018-01-15T13:58:41.245Z,1002.47
2018-01-15T13:59:50.076Z,1002.5
2018-01-15T14:00:58.918Z,1002.42
2018-01-15T14:02:08.101Z,1002.39
2018-01-15T14:03:16.956Z,1002.33
2018-01-15T14:04:25.865Z,1002.33
2018-01-15T14:05:34.692Z,1002.3
2018-01-15T14:06:43.521Z,1002.29
2018-01-15T14:07:52.348Z,1002.18
2018-01-15T14:09:01.452Z,1002.18
2018-01-15T14:10:10.573Z,1002.07
2018-01-15T14:11:19.676Z,1002.15
2018-01-15T14:12:28.512Z,1002.11
2018-01-15T14:13:37.591Z,1002.07
2018-01-15T14:14:46.420Z,1001.99
2018-01-15T14:15:55.249Z,1001.96
2018-01-15T14:17:04.076Z,1001.94
2018-01-15T14:18:12.903Z,1001.93
2018-01-15T14:19:22.031Z,1001.94
2018-01-15T14:20:30.908Z,1001.86
2018-01-15T14:21:39.685Z,1001.85
2018-01-15T14:22:48.514Z,1001.8
2018-01-15T14:23:57.343Z,1001.74
2018-01-15T14:25:06.471Z,1001.76
2018-01-15T14:26:15.303Z,1001.72
2018-01-15T14:27:24.130Z,1001.69
2018-01-15T14:28:32.957Z,1001.7
2018-01-15T14:29:41.787Z,1001.59
2018-01-15T14:30:50.770Z,1001.57
2018-01-15T14:31:59.591Z,1001.5
2018-01-15T14:33:08.444Z,1001.51
2018-01-15T14:34:17.842Z,1001.44
2018-01-15T14:35:27.419Z,1001.45
2018-01-15T14:36:36.696Z,1001.42
2018-01-15T14:37:46.281Z,1001.37
2018-01-15T14:38:55.335Z,1001.35
2018-01-15T14:40:04.579Z,1001.3
2018-01-15T14:41:13.471Z,1001.28
2018-01-15T14:42:22.800Z,1001.26
2018-01-15T14:43:31.874Z,1001.24
2018-01-15T14:44:41.141Z,1001.2
2018-01-15T14:45:50.501Z,1001.17
2018-01-15T14:46:59.310Z,1001.07
2018-01-15T14:48:08.292Z,1001.08
2018-01-15T14:49:17.117Z,1001.03
2018-01-15T14:50:26.175Z,1001.06
2018-01-15T14:51:35.270Z,1001.06
2018-01-15T14:52:44.105Z,1000.95
2018-01-15T14:53:53.087Z,1000.99
2018-01-15T14:55:02.169Z,1000.96
2018-01-15T14:56:11.016Z,1000.97
2018-01-15T14:57:20.136Z,1000.94
2018-01-15T14:58:29.257Z,1000.93
2018-01-15T14:59:38.386Z,1000.85
2018-01-15T15:00:47.213Z,1000.87
2018-01-15T15:01:56.148Z,1000.8
2018-01-15T15:03:05.134Z,1000.8
2018-01-15T15:04:14.270Z,1000.76
2018-01-15T15:05:23.112Z,1000.63
2018-01-15T15:06:31.946Z,1000.69
2018-01-15T15:07:40.836Z,1000.63
2018-01-15T15:08:50.107Z,1000.56
2018-01-15T15:09:59.460Z,1000.57
2018-01-15T15:11:08.317Z,1000.57
2018-01-15T15:12:17.145Z,1000.56
2018-01-15T15:13:25.971Z,1000.49
2018-01-15T15:14:34.809Z,1000.46
2018-01-15T15:15:43.811Z,1000.5
2018-01-15T15:16:52.988Z,1000.47
2018-01-15T15:18:02.171Z,1000.43
2018-01-15T15:19:11.031Z,1000.39
2018-01-15T15:20:19.899Z,1000.36
2018-01-15T15:21:28.730Z,1000.34
2018-01-15T15:22:37.712Z,1000.37
